sensor_id;sensor_type;location;lat;lon;timestamp;pressure;altitude;pressure_sealevel;temperature;humidity
13661;BME280;6903;49.480;11.102;2023-11-19T00:00:59;97912.16;;;5.73;100.00
13661;BME280;6903;49.480;11.102;2023-11-19T00:03:25;97907.88;;;5.72;100.00
13661;BME280;6903;49.480;11.102;2023-11-19T00:05:50;97895.94;;;5.68;100.00
13661;BME280;6903;49.480;11.102;2023-11-19T00:08:16;97887.03;;;5.71;100.00
13661;BME280;6903;49.480;11.102;2023-11-19T00:10:41;97878.16;;;5.73;100.00
13661;BME280;6903;49.480;11.102;2023-11-19T00:13:06;97865.06;;;5.73;100.00
13661;BME280;6903;49.480;11.102;2023-11-19T00:15:32;97867.59;;;5.75;100.00
13661;BME280;6903;49.480;11.102;2023-11-19T00:17:57;97878.00;;;5.76;100.00
13661;BME280;6903;49.480;11.102;2023-11-19T00:20:22;97883.03;;;5.79;100.00
13661;BME280;6903;49.480;11.102;2023-11-19T00:22:48;97881.09;;;5.83;100.00
13661;BME280;6903;49.480;11.102;2023-11-19T00:25:16;97883.53;;;5.86;100.00
13661;BME280;6903;49.480;11.102;2023-11-19T00:27:42;97875.03;;;5.83;100.00
13661;BME280;6903;49.480;11.102;2023-11-19T00:30:10;97866.41;;;5.80;100.00
13661;BME280;6903;49.480;11.102;2023-11-19T00:32:36;97866.22;;;5.84;100.00
13661;BME280;6903;49.480;11.102;2023-11-19T00:35:03;97862.50;;;5.88;100.00
13661;BME280;6903;49.480;11.102;2023-11-19T00:37:29;97864.84;;;5.92;100.00
13661;BME280;6903;49.480;11.102;2023-11-19T00:39:54;97862.97;;;5.94;100.00
13661;BME280;6903;49.480;11.102;2023-11-19T00:42:21;97862.78;;;5.97;100.00
13661;BME280;6903;49.480;11.102;2023-11-19T00:44:47;97840.88;;;5.98;100.00
13661;BME280;6903;49.480;11.102;2023-11-19T00:47:12;97831.16;;;6.00;100.00
13661;BME280;6903;49.480;11.102;2023-11-19T00:49:37;97831.16;;;6.00;100.00
13661;BME280;6903;49.480;11.102;2023-11-19T00:52:03;97824.16;;;6.01;100.00
13661;BME280;6903;49.480;11.102;2023-11-19T00:54:28;97828.56;;;6.00;100.00
13661;BME280;6903;49.480;11.102;2023-11-19T00:56:54;97814.53;;;6.01;100.00
13661;BME280;6903;49.480;11.102;2023-11-19T00:59:20;97819.56;;;6.04;100.00
13661;BME280;6903;49.480;11.102;2023-11-19T01:01:46;97810.78;;;6.05;100.00
13661;BME280;6903;49.480;11.102;2023-11-19T01:04:13;97812.44;;;6.06;100.00
13661;BME280;6903;49.480;11.102;2023-11-19T01:06:38;97812.34;;;6.08;100.00
13661;BME280;6903;49.480;11.102;2023-11-19T01:09:04;97829.66;;;6.10;100.00
13661;BME280;6903;49.480;11.102;2023-11-19T01:11:29;97830.38;;;6.12;100.00
13661;BME280;6903;49.480;11.102;2023-11-19T01:13:54;97826.09;;;6.11;100.00
13661;BME280;6903;49.480;11.102;2023-11-19T01:16:20;97831.22;;;6.13;100.00
13661;BME280;6903;49.480;11.102;2023-11-19T01:18:49;97832.28;;;6.10;100.00
13661;BME280;6903;49.480;11.102;2023-11-19T01:21:15;97838.31;;;6.11;100.00
13661;BME280;6903;49.480;11.102;2023-11-19T01:23:41;97827.69;;;6.14;100.00
13661;BME280;6903;49.480;11.102;2023-11-19T01:26:09;97824.22;;;6.13;100.00
13661;BME280;6903;49.480;11.102;2023-11-19T01:28:35;97820.66;;;6.14;100.00
13661;BME280;6903;49.480;11.102;2023-11-19T01:31:01;97819.00;;;6.13;100.00
13661;BME280;6903;49.480;11.102;2023-11-19T01:33:26;97819.00;;;6.13;100.00
13661;BME280;6903;49.480;11.102;2023-11-19T01:35:52;97817.84;;;6.17;100.00
13661;BME280;6903;49.480;11.102;2023-11-19T01:38:17;97816.06;;;6.18;100.00
13661;BME280;6903;49.480;11.102;2023-11-19T01:40:42;97817.84;;;6.17;100.00
13661;BME280;6903;49.480;11.102;2023-11-19T01:43:07;97806.66;;;6.15;100.00
13661;BME280;6903;49.480;11.102;2023-11-19T01:45:37;97796.28;;;6.14;100.00
13661;BME280;6903;49.480;11.102;2023-11-19T01:48:03;97789.25;;;6.14;100.00
13661;BME280;6903;49.480;11.102;2023-11-19T01:50:30;97788.44;;;6.14;100.00
13661;BME280;6903;49.480;11.102;2023-11-19T01:52:55;97786.53;;;6.16;100.00
13661;BME280;6903;49.480;11.102;2023-11-19T01:55:24;97765.47;;;6.17;100.00
13661;BME280;6903;49.480;11.102;2023-11-19T01:57:49;97751.38;;;6.20;100.00
13661;BME280;6903;49.480;11.102;2023-11-19T02:00:16;97736.59;;;6.19;100.00
13661;BME280;6903;49.480;11.102;2023-11-19T02:02:42;97741.72;;;6.20;100.00
13661;BME280;6903;49.480;11.102;2023-11-19T02:05:09;97730.53;;;6.18;100.00
13661;BME280;6903;49.480;11.102;2023-11-19T02:07:34;97740.06;;;6.19;100.00
13661;BME280;6903;49.480;11.102;2023-11-19T02:09:59;97737.97;;;6.24;100.00
13661;BME280;6903;49.480;11.102;2023-11-19T02:12:27;97739.66;;;6.25;100.00
13661;BME280;6903;49.480;11.102;2023-11-19T02:14:59;97740.41;;;6.27;100.00
13661;BME280;6903;49.480;11.102;2023-11-19T02:17:28;97743.00;;;6.27;100.00
13661;BME280;6903;49.480;11.102;2023-11-19T02:19:53;97739.66;;;6.25;100.00
13661;BME280;6903;49.480;11.102;2023-11-19T02:22:18;97737.56;;;6.30;100.00
13661;BME280;6903;49.480;11.102;2023-11-19T02:24:45;97740.84;;;6.34;100.00
13661;BME280;6903;49.480;11.102;2023-11-19T02:27:16;97753.81;;;6.35;100.00
13661;BME280;6903;49.480;11.102;2023-11-19T02:29:45;97747.56;;;6.38;100.00
13661;BME280;6903;49.480;11.102;2023-11-19T02:32:10;97744.84;;;6.39;100.00
13661;BME280;6903;49.480;11.102;2023-11-19T02:34:38;97737.59;;;6.43;100.00
13661;BME280;6903;49.480;11.102;2023-11-19T02:37:03;97735.81;;;6.43;100.00
13661;BME280;6903;49.480;11.102;2023-11-19T02:39:30;97730.59;;;6.43;100.00
13661;BME280;6903;49.480;11.102;2023-11-19T02:41:56;97721.69;;;6.46;100.00
13661;BME280;6903;49.480;11.102;2023-11-19T02:44:21;97736.47;;;6.47;100.00
13661;BME280;6903;49.480;11.102;2023-11-19T02:46:47;97735.63;;;6.46;100.00
13661;BME280;6903;49.480;11.102;2023-11-19T02:49:14;97730.59;;;6.43;100.00
13661;BME280;6903;49.480;11.102;2023-11-19T02:51:39;97730.47;;;6.45;100.00
13661;BME280;6903;49.480;11.102;2023-11-19T02:54:05;97736.25;;;6.50;100.00
13661;BME280;6903;49.480;11.102;2023-11-19T02:56:30;97723.81;;;6.53;100.00
13661;BME280;6903;49.480;11.102;2023-11-19T02:58:59;97730.00;;;6.52;100.00
13661;BME280;6903;49.480;11.102;2023-11-19T03:01:28;97728.50;;;6.48;100.00
13661;BME280;6903;49.480;11.102;2023-11-19T03:03:59;97723.38;;;6.47;100.00
13661;BME280;6903;49.480;11.102;2023-11-19T03:06:26;97711.22;;;6.46;100.00
13661;BME280;6903;49.480;11.102;2023-11-19T03:08:52;97704.41;;;6.43;100.00
13661;BME280;6903;49.480;11.102;2023-11-19T03:11:18;97710.38;;;6.45;100.00
13661;BME280;6903;49.480;11.102;2023-11-19T03:13:43;97712.16;;;6.45;100.00
13661;BME280;6903;49.480;11.102;2023-11-19T03:16:08;97711.34;;;6.44;100.00
13661;BME280;6903;49.480;11.102;2023-11-19T03:18:34;97711.13;;;6.47;100.00
13661;BME280;6903;49.480;11.102;2023-11-19T03:21:00;97705.78;;;6.49;100.00
13661;BME280;6903;49.480;11.102;2023-11-19T03:23:25;97702.09;;;6.51;100.00
13661;BME280;6903;49.480;11.102;2023-11-19T03:25:53;97679.38;;;6.52;100.00
13661;BME280;6903;49.480;11.102;2023-11-19T03:28:18;97679.38;;;6.52;100.00
13661;BME280;6903;49.480;11.102;2023-11-19T03:30:43;97692.25;;;6.55;100.00
13661;BME280;6903;49.480;11.102;2023-11-19T03:33:09;97695.72;;;6.55;100.00
13661;BME280;6903;49.480;11.102;2023-11-19T03:35:34;97692.16;;;6.56;100.00
13661;BME280;6903;49.480;11.102;2023-11-19T03:37:59;97683.34;;;6.57;100.00
13661;BME280;6903;49.480;11.102;2023-11-19T03:40:26;97651.09;;;6.57;100.00
13661;BME280;6903;49.480;11.102;2023-11-19T03:42:51;97639.66;;;6.58;100.00
13661;BME280;6903;49.480;11.102;2023-11-19T03:45:16;97625.72;;;6.57;100.00
13661;BME280;6903;49.480;11.102;2023-11-19T03:47:42;97607.59;;;6.54;100.00
13661;BME280;6903;49.480;11.102;2023-11-19T03:50:07;97587.28;;;6.58;100.00
13661;BME280;6903;49.480;11.102;2023-11-19T03:52:33;97556.91;;;6.55;100.00
13661;BME280;6903;49.480;11.102;2023-11-19T03:54:59;97550.63;;;6.58;100.00
13661;BME280;6903;49.480;11.102;2023-11-19T03:57:24;97555.75;;;6.59;100.00
13661;BME280;6903;49.480;11.102;2023-11-19T03:59:50;97560.06;;;6.60;100.00
13661;BME280;6903;49.480;11.102;2023-11-19T04:02:15;97573.66;;;6.65;100.00
13661;BME280;6903;49.480;11.102;2023-11-19T04:04:41;97576.78;;;6.70;100.00
13661;BME280;6903;49.480;11.102;2023-11-19T04:07:07;97586.84;;;6.76;100.00
13661;BME280;6903;49.480;11.102;2023-11-19T04:09:32;97592.69;;;6.80;100.00
13661;BME280;6903;49.480;11.102;2023-11-19T04:12:02;97587.03;;;6.86;100.00
13661;BME280;6903;49.480;11.102;2023-11-19T04:14:28;97585.75;;;6.91;100.00
13661;BME280;6903;49.480;11.102;2023-11-19T04:16:53;97608.19;;;6.95;100.00
13661;BME280;6903;49.480;11.102;2023-11-19T04:19:19;97616.34;;;7.03;100.00
13661;BME280;6903;49.480;11.102;2023-11-19T04:21:45;97617.69;;;7.09;100.00
13661;BME280;6903;49.480;11.102;2023-11-19T04:24:10;97616.66;;;7.11;100.00
13661;BME280;6903;49.480;11.102;2023-11-19T04:26:43;97614.78;;;7.13;100.00
13661;BME280;6903;49.480;11.102;2023-11-19T04:29:11;97622.41;;;7.16;100.00
13661;BME280;6903;49.480;11.102;2023-11-19T04:31:37;97622.19;;;7.19;100.00
13661;BME280;6903;49.480;11.102;2023-11-19T04:34:02;97629.72;;;7.24;100.00
13661;BME280;6903;49.480;11.102;2023-11-19T04:36:27;97629.38;;;7.29;100.00
13661;BME280;6903;49.480;11.102;2023-11-19T04:38:54;97627.28;;;7.34;100.00
13661;BME280;6903;49.480;11.102;2023-11-19T04:41:20;97624.78;;;7.32;100.00
13661;BME280;6903;49.480;11.102;2023-11-19T04:43:45;97633.38;;;7.34;100.00
13661;BME280;6903;49.480;11.102;2023-11-19T04:46:10;97630.63;;;7.36;100.00
13661;BME280;6903;49.480;11.102;2023-11-19T04:48:36;97621.81;;;7.37;100.00
13661;BME280;6903;49.480;11.102;2023-11-19T04:51:05;97619.19;;;7.37;100.00
13661;BME280;6903;49.480;11.102;2023-11-19T04:53:30;97618.16;;;7.39;100.00
13661;BME280;6903;49.480;11.102;2023-11-19T04:55:55;97621.47;;;7.41;100.00
13661;BME280;6903;49.480;11.102;2023-11-19T04:58:21;97623.78;;;7.46;100.00
13661;BME280;6903;49.480;11.102;2023-11-19T05:00:46;97625.44;;;7.47;100.00
13661;BME280;6903;49.480;11.102;2023-11-19T05:03:11;97618.31;;;7.49;100.00
13661;BME280;6903;49.480;11.102;2023-11-19T05:05:37;97619.03;;;7.51;100.00
13661;BME280;6903;49.480;11.102;2023-11-19T05:08:02;97613.78;;;7.51;100.00
13661;BME280;6903;49.480;11.102;2023-11-19T05:10:27;97620.50;;;7.55;100.00
13661;BME280;6903;49.480;11.102;2023-11-19T05:12:53;97606.53;;;7.54;100.00
13661;BME280;6903;49.480;11.102;2023-11-19T05:15:18;97615.13;;;7.56;100.00
13661;BME280;6903;49.480;11.102;2023-11-19T05:17:43;97609.66;;;7.59;100.00
13661;BME280;6903;49.480;11.102;2023-11-19T05:20:09;97611.94;;;7.64;100.00
13661;BME280;6903;49.480;11.102;2023-11-19T05:22:40;97608.38;;;7.65;100.00
13661;BME280;6903;49.480;11.102;2023-11-19T05:25:05;97602.16;;;7.66;100.00
13661;BME280;6903;49.480;11.102;2023-11-19T05:27:31;97601.22;;;7.67;100.00
13661;BME280;6903;49.480;11.102;2023-11-19T05:29:56;97600.91;;;7.71;100.00
13661;BME280;6903;49.480;11.102;2023-11-19T05:32:21;97595.31;;;7.76;100.00
13661;BME280;6903;49.480;11.102;2023-11-19T05:34:47;97596.84;;;7.78;100.00
13661;BME280;6903;49.480;11.102;2023-11-19T05:37:12;97582.69;;;7.81;100.00
13661;BME280;6903;49.480;11.102;2023-11-19T05:39:37;97585.19;;;7.82;100.00
13661;BME280;6903;49.480;11.102;2023-11-19T05:42:03;97583.88;;;7.88;100.00
13661;BME280;6903;49.480;11.102;2023-11-19T05:44:28;97576.63;;;7.91;100.00
13661;BME280;6903;49.480;11.102;2023-11-19T05:46:54;97572.22;;;7.92;100.00
13661;BME280;6903;49.480;11.102;2023-11-19T05:49:19;97580.81;;;7.94;100.00
13661;BME280;6903;49.480;11.102;2023-11-19T05:51:44;97577.84;;;7.98;100.00
13661;BME280;6903;49.480;11.102;2023-11-19T05:54:11;97575.84;;;8.02;100.00
13661;BME280;6903;49.480;11.102;2023-11-19T05:56:36;97570.22;;;8.06;100.00
13661;BME280;6903;49.480;11.102;2023-11-19T05:59:02;97567.38;;;8.09;100.00
13661;BME280;6903;49.480;11.102;2023-11-19T06:01:33;97567.13;;;8.12;100.00
13661;BME280;6903;49.480;11.102;2023-11-19T06:03:58;97567.63;;;8.17;100.00
13661;BME280;6903;49.480;11.102;2023-11-19T06:06:26;97571.63;;;8.23;100.00
13661;BME280;6903;49.480;11.102;2023-11-19T06:08:51;97572.09;;;8.28;100.00
13661;BME280;6903;49.480;11.102;2023-11-19T06:11:16;97578.06;;;8.30;100.00
13661;BME280;6903;49.480;11.102;2023-11-19T06:13:45;97588.22;;;8.34;100.00
13661;BME280;6903;49.480;11.102;2023-11-19T06:16:10;97576.66;;;8.37;100.00
13661;BME280;6903;49.480;11.102;2023-11-19T06:18:38;97578.91;;;8.41;100.00
13661;BME280;6903;49.480;11.102;2023-11-19T06:21:04;97578.78;;;8.43;100.00
13661;BME280;6903;49.480;11.102;2023-11-19T06:23:29;97575.81;;;8.47;100.00
13661;BME280;6903;49.480;11.102;2023-11-19T06:25:55;97586.94;;;8.51;100.00
13661;BME280;6903;49.480;11.102;2023-11-19T06:28:20;97584.91;;;8.54;100.00
13661;BME280;6903;49.480;11.102;2023-11-19T06:30:45;97576.78;;;8.57;100.00
13661;BME280;6903;49.480;11.102;2023-11-19T06:33:14;97580.00;;;8.61;100.00
13661;BME280;6903;49.480;11.102;2023-11-19T06:35:39;97581.44;;;8.65;100.00
13661;BME280;6903;49.480;11.102;2023-11-19T06:38:05;97588.25;;;8.68;100.00
13661;BME280;6903;49.480;11.102;2023-11-19T06:40:31;97572.38;;;8.69;100.00
13661;BME280;6903;49.480;11.102;2023-11-19T06:42:56;97575.59;;;8.73;100.00
13661;BME280;6903;49.480;11.102;2023-11-19T06:45:22;97580.63;;;8.76;100.00
13661;BME280;6903;49.480;11.102;2023-11-19T06:47:47;97573.56;;;8.76;100.00
13661;BME280;6903;49.480;11.102;2023-11-19T06:50:12;97571.41;;;8.81;100.00
13661;BME280;6903;49.480;11.102;2023-11-19T06:52:38;97573.09;;;8.82;100.00
13661;BME280;6903;49.480;11.102;2023-11-19T06:55:04;97581.44;;;8.87;100.00
13661;BME280;6903;49.480;11.102;2023-11-19T06:57:30;97573.31;;;8.90;100.00
13661;BME280;6903;49.480;11.102;2023-11-19T06:59:57;97573.81;;;8.95;100.00
13661;BME280;6903;49.480;11.102;2023-11-19T07:02:23;97577.97;;;8.98;100.00
13661;BME280;6903;49.480;11.102;2023-11-19T07:04:48;97582.97;;;9.01;100.00
13661;BME280;6903;49.480;11.102;2023-11-19T07:07:14;97583.56;;;9.04;100.00
13661;BME280;6903;49.480;11.102;2023-11-19T07:09:40;97579.75;;;9.08;100.00
13661;BME280;6903;49.480;11.102;2023-11-19T07:12:05;97582.16;;;9.11;100.00
13661;BME280;6903;49.480;11.102;2023-11-19T07:14:31;97581.91;;;9.14;100.00
13661;BME280;6903;49.480;11.102;2023-11-19T07:16:56;97577.38;;;9.16;100.00
13661;BME280;6903;49.480;11.102;2023-11-19T07:19:22;97588.34;;;9.21;100.00
13661;BME280;6903;49.480;11.102;2023-11-19T07:21:47;97583.66;;;9.25;100.00
13661;BME280;6903;49.480;11.102;2023-11-19T07:24:12;97584.13;;;9.30;100.00
13661;BME280;6903;49.480;11.102;2023-11-19T07:26:43;97588.31;;;9.32;100.00
13661;BME280;6903;49.480;11.102;2023-11-19T07:29:09;97595.34;;;9.43;100.00
13661;BME280;6903;49.480;11.102;2023-11-19T07:31:34;97595.34;;;9.43;100.00
13661;BME280;6903;49.480;11.102;2023-11-19T07:33:59;97603.09;;;9.55;100.00
13661;BME280;6903;49.480;11.102;2023-11-19T07:36:25;97604.91;;;9.55;100.00
13661;BME280;6903;49.480;11.102;2023-11-19T07:38:50;97600.56;;;9.54;100.00
13661;BME280;6903;49.480;11.102;2023-11-19T07:41:16;97600.56;;;9.54;100.00
13661;BME280;6903;49.480;11.102;2023-11-19T07:43:44;97604.16;;;9.64;100.00
13661;BME280;6903;49.480;11.102;2023-11-19T07:46:11;97604.16;;;9.64;100.00
13661;BME280;6903;49.480;11.102;2023-11-19T07:48:38;97605.06;;;9.74;100.00
13661;BME280;6903;49.480;11.102;2023-11-19T07:51:03;97601.34;;;9.76;100.00
13661;BME280;6903;49.480;11.102;2023-11-19T07:53:29;97604.31;;;9.83;100.00
13661;BME280;6903;49.480;11.102;2023-11-19T07:55:54;97607.41;;;9.88;100.00
13661;BME280;6903;49.480;11.102;2023-11-19T07:58:19;97606.91;;;9.94;100.00
13661;BME280;6903;49.480;11.102;2023-11-19T08:00:45;97603.19;;;9.96;100.00
13661;BME280;6903;49.480;11.102;2023-11-19T08:03:10;97612.50;;;10.00;100.00
13661;BME280;6903;49.480;11.102;2023-11-19T08:05:36;97609.50;;;10.05;100.00
13661;BME280;6903;49.480;11.102;2023-11-19T08:08:01;97615.22;;;10.10;100.00
13661;BME280;6903;49.480;11.102;2023-11-19T08:10:26;97609.59;;;10.15;100.00
13661;BME280;6903;49.480;11.102;2023-11-19T08:12:52;97622.25;;;10.21;100.00
13661;BME280;6903;49.480;11.102;2023-11-19T08:15:17;97627.28;;;10.24;100.00
13661;BME280;6903;49.480;11.102;2023-11-19T08:17:42;97604.00;;;10.29;100.00
13661;BME280;6903;49.480;11.102;2023-11-19T08:20:09;97604.00;;;10.29;100.00
13661;BME280;6903;49.480;11.102;2023-11-19T08:22:36;97594.38;;;10.39;100.00
13661;BME280;6903;49.480;11.102;2023-11-19T08:25:02;97593.97;;;10.43;100.00
13661;BME280;6903;49.480;11.102;2023-11-19T08:27:27;97592.59;;;10.49;100.00
13661;BME280;6903;49.480;11.102;2023-11-19T08:29:54;97592.13;;;10.55;100.00
13661;BME280;6903;49.480;11.102;2023-11-19T08:32:22;97585.47;;;10.60;100.00
13661;BME280;6903;49.480;11.102;2023-11-19T08:34:47;97582.44;;;10.65;100.00
13661;BME280;6903;49.480;11.102;2023-11-19T08:37:13;97587.88;;;10.73;100.00
13661;BME280;6903;49.480;11.102;2023-11-19T08:39:38;97594.88;;;10.83;100.00
13661;BME280;6903;49.480;11.102;2023-11-19T08:42:04;97596.59;;;10.94;100.00
13661;BME280;6903;49.480;11.102;2023-11-19T08:44:29;97593.97;;;11.03;100.00
13661;BME280;6903;49.480;11.102;2023-11-19T08:46:54;97595.00;;;11.12;100.00
13661;BME280;6903;49.480;11.102;2023-11-19T08:49:20;97595.00;;;11.12;100.00
13661;BME280;6903;49.480;11.102;2023-11-19T08:51:45;97602.28;;;11.29;100.00
13661;BME280;6903;49.480;11.102;2023-11-19T08:54:10;97594.53;;;11.37;100.00
13661;BME280;6903;49.480;11.102;2023-11-19T08:56:37;97590.94;;;11.48;100.00
13661;BME280;6903;49.480;11.102;2023-11-19T08:59:04;97586.66;;;11.56;100.00
13661;BME280;6903;49.480;11.102;2023-11-19T09:01:29;97593.47;;;11.68;100.00
13661;BME280;6903;49.480;11.102;2023-11-19T09:03:55;97594.34;;;11.78;100.00
13661;BME280;6903;49.480;11.102;2023-11-19T09:06:20;97589.63;;;11.91;100.00
13661;BME280;6903;49.480;11.102;2023-11-19T09:08:45;97587.25;;;12.07;100.00
13661;BME280;6903;49.480;11.102;2023-11-19T09:11:11;97580.72;;;12.21;100.00
13661;BME280;6903;49.480;11.102;2023-11-19T09:13:37;97582.34;;;12.31;100.00
13661;BME280;6903;49.480;11.102;2023-11-19T09:16:02;97586.53;;;12.43;100.00
13661;BME280;6903;49.480;11.102;2023-11-19T09:18:29;97588.31;;;12.52;100.00
13661;BME280;6903;49.480;11.102;2023-11-19T09:20:54;97601.38;;;12.63;100.00
13661;BME280;6903;49.480;11.102;2023-11-19T09:23:20;97608.56;;;12.71;100.00
13661;BME280;6903;49.480;11.102;2023-11-19T09:25:45;97613.31;;;12.77;100.00
13661;BME280;6903;49.480;11.102;2023-11-19T09:28:10;97614.25;;;12.85;100.00
13661;BME280;6903;49.480;11.102;2023-11-19T09:30:36;97611.69;;;13.03;100.00
13661;BME280;6903;49.480;11.102;2023-11-19T09:33:01;97621.25;;;13.23;100.00
13661;BME280;6903;49.480;11.102;2023-11-19T09:35:27;97622.84;;;13.43;100.00
13661;BME280;6903;49.480;11.102;2023-11-19T09:37:52;97626.34;;;13.61;100.00
13661;BME280;6903;49.480;11.102;2023-11-19T09:40:18;97627.59;;;13.84;100.00
13661;BME280;6903;49.480;11.102;2023-11-19T09:42:44;97616.84;;;14.03;100.00
13661;BME280;6903;49.480;11.102;2023-11-19T09:45:13;97621.91;;;14.14;100.00
13661;BME280;6903;49.480;11.102;2023-11-19T09:47:42;97621.91;;;14.14;100.00
13661;BME280;6903;49.480;11.102;2023-11-19T09:50:09;97613.22;;;14.22;100.00
13661;BME280;6903;49.480;11.102;2023-11-19T09:52:35;97613.22;;;14.22;100.00
13661;BME280;6903;49.480;11.102;2023-11-19T09:55:00;97613.22;;;14.22;100.00
13661;BME280;6903;49.480;11.102;2023-11-19T09:57:26;97600.25;;;13.84;100.00
13661;BME280;6903;49.480;11.102;2023-11-19T09:59:53;97593.28;;;13.65;100.00
13661;BME280;6903;49.480;11.102;2023-11-19T10:02:19;97588.09;;;13.46;100.00
13661;BME280;6903;49.480;11.102;2023-11-19T10:04:46;97589.28;;;13.34;100.00
13661;BME280;6903;49.480;11.102;2023-11-19T10:07:12;97587.06;;;13.34;100.00
13661;BME280;6903;49.480;11.102;2023-11-19T10:09:37;97588.44;;;13.34;100.00
13661;BME280;6903;49.480;11.102;2023-11-19T10:12:03;97587.56;;;13.43;100.00
13661;BME280;6903;49.480;11.102;2023-11-19T10:14:30;97586.50;;;13.53;100.00
13661;BME280;6903;49.480;11.102;2023-11-19T10:16:56;97583.38;;;13.67;100.00
13661;BME280;6903;49.480;11.102;2023-11-19T10:19:21;97578.16;;;13.75;100.00
13661;BME280;6903;49.480;11.102;2023-11-19T10:21:46;97578.06;;;13.85;100.00
13661;BME280;6903;49.480;11.102;2023-11-19T10:24:12;97571.84;;;13.94;100.00
13661;BME280;6903;49.480;11.102;2023-11-19T10:26:37;97572.94;;;14.01;100.00
13661;BME280;6903;49.480;11.102;2023-11-19T10:29:02;97569.28;;;14.02;100.00
13661;BME280;6903;49.480;11.102;2023-11-19T10:31:29;97560.13;;;13.96;100.00
13661;BME280;6903;49.480;11.102;2023-11-19T10:33:54;97559.06;;;13.89;100.00
13661;BME280;6903;49.480;11.102;2023-11-19T10:36:20;97560.09;;;13.79;100.00
13661;BME280;6903;49.480;11.102;2023-11-19T10:38:56;97553.06;;;13.70;100.00
13661;BME280;6903;49.480;11.102;2023-11-19T10:41:31;97571.69;;;13.60;100.00
13661;BME280;6903;49.480;11.102;2023-11-19T10:43:57;97580.81;;;13.48;100.00
13661;BME280;6903;49.480;11.102;2023-11-19T10:46:36;97576.81;;;13.44;100.00
13661;BME280;6903;49.480;11.102;2023-11-19T10:49:02;97576.56;;;13.38;100.00
13661;BME280;6903;49.480;11.102;2023-11-19T10:51:28;97573.84;;;13.30;100.00
13661;BME280;6903;49.480;11.102;2023-11-19T10:53:58;97580.78;;;13.31;100.00
13661;BME280;6903;49.480;11.102;2023-11-19T10:56:30;97587.03;;;13.39;100.00
13661;BME280;6903;49.480;11.102;2023-11-19T10:58:59;97587.03;;;13.39;100.00
13661;BME280;6903;49.480;11.102;2023-11-19T11:01:27;97587.34;;;13.54;100.00
13661;BME280;6903;49.480;11.102;2023-11-19T11:03:57;97584.25;;;13.76;100.00
13661;BME280;6903;49.480;11.102;2023-11-19T11:06:24;97576.03;;;13.96;100.00
13661;BME280;6903;49.480;11.102;2023-11-19T11:08:51;97576.03;;;13.96;100.00
13661;BME280;6903;49.480;11.102;2023-11-19T11:11:16;97569.78;;;14.41;100.00
13661;BME280;6903;49.480;11.102;2023-11-19T11:13:49;74122.19;;;-141.35;100.00
13661;BME280;6903;49.480;11.102;2023-11-19T11:16:18;58397.03;;;-141.35;100.00
13661;BME280;6903;49.480;11.102;2023-11-19T11:21:11;74122.19;;;-141.35;100.00
13661;BME280;6903;49.480;11.102;2023-11-19T11:26:50;74122.19;;;-141.35;100.00
13661;BME280;6903;49.480;11.102;2023-11-19T11:29:50;58397.03;;;-141.35;nan
13661;BME280;6903;49.480;11.102;2023-11-19T11:32:30;97569.78;;;14.41;100.00
13661;BME280;6903;49.480;11.102;2023-11-19T11:35:23;97569.78;;;14.41;100.00
13661;BME280;6903;49.480;11.102;2023-11-19T11:37:55;74122.19;;;-141.35;100.00
13661;BME280;6903;49.480;11.102;2023-11-19T11:40:21;97569.78;;;14.41;100.00
13661;BME280;6903;49.480;11.102;2023-11-19T11:42:48;97569.78;;;14.41;100.00
13661;BME280;6903;49.480;11.102;2023-11-19T11:45:16;97569.78;;;14.41;100.00
13661;BME280;6903;49.480;11.102;2023-11-19T11:50:17;97569.78;;;14.41;100.00
13661;BME280;6903;49.480;11.102;2023-11-19T11:55:35;97569.78;;;14.41;100.00
13661;BME280;6903;49.480;11.102;2023-11-19T11:58:02;97569.78;;;14.41;100.00
13661;BME280;6903;49.480;11.102;2023-11-19T12:00:30;97569.78;;;14.41;100.00
13661;BME280;6903;49.480;11.102;2023-11-19T12:02:56;97492.22;;;15.14;100.00
13661;BME280;6903;49.480;11.102;2023-11-19T12:05:22;97492.22;;;15.14;100.00
13661;BME280;6903;49.480;11.102;2023-11-19T12:07:58;97492.22;;;15.14;100.00
13661;BME280;6903;49.480;11.102;2023-11-19T12:10:25;97492.22;;;15.14;100.00
13661;BME280;6903;49.480;11.102;2023-11-19T12:12:58;97492.22;;;15.14;100.00
13661;BME280;6903;49.480;11.102;2023-11-19T12:15:23;97492.22;;;15.14;100.00
13661;BME280;6903;49.480;11.102;2023-11-19T12:17:50;97492.22;;;15.14;100.00
13661;BME280;6903;49.480;11.102;2023-11-19T12:20:17;97492.22;;;15.14;100.00
13661;BME280;6903;49.480;11.102;2023-11-19T12:22:44;97492.22;;;15.14;100.00
13661;BME280;6903;49.480;11.102;2023-11-19T12:25:11;97492.22;;;15.14;100.00
13661;BME280;6903;49.480;11.102;2023-11-19T12:27:39;97492.22;;;15.14;100.00
13661;BME280;6903;49.480;11.102;2023-11-19T12:30:05;97492.22;;;15.14;100.00
13661;BME280;6903;49.480;11.102;2023-11-19T12:32:43;97492.22;;;15.14;100.00
13661;BME280;6903;49.480;11.102;2023-11-19T12:35:12;97492.22;;;15.14;100.00
13661;BME280;6903;49.480;11.102;2023-11-19T12:37:45;97492.22;;;15.14;100.00
13661;BME280;6903;49.480;11.102;2023-11-19T12:40:21;97492.22;;;15.14;100.00
13661;BME280;6903;49.480;11.102;2023-11-19T12:42:51;97492.22;;;15.14;100.00
13661;BME280;6903;49.480;11.102;2023-11-19T12:45:16;97492.22;;;15.14;100.00
13661;BME280;6903;49.480;11.102;2023-11-19T12:47:45;97492.22;;;15.14;100.00
13661;BME280;6903;49.480;11.102;2023-11-19T12:50:13;97492.22;;;15.14;100.00
13661;BME280;6903;49.480;11.102;2023-11-19T12:52:39;97492.22;;;15.14;100.00
13661;BME280;6903;49.480;11.102;2023-11-19T12:55:06;97492.22;;;15.14;100.00
13661;BME280;6903;49.480;11.102;2023-11-19T12:57:48;97492.22;;;15.14;100.00
13661;BME280;6903;49.480;11.102;2023-11-19T13:00:21;97492.22;;;15.14;100.00
13661;BME280;6903;49.480;11.102;2023-11-19T13:02:52;97492.22;;;15.14;100.00